Time,TemperatureF,DewpointF,PressureIn,WindDirection,WindDirectionDegrees,WindSpeedMPH,WindSpeedGustMPH,Humidity,HourlyPrecipIn,Conditions,Clouds,dailyrainin,SoftwareType,DateUTC
2013-01-01 00:01:00,1.6,-11.3,30.19,NW,315,0.0,0.0,54,0.00,CLR,,0.00,WeatherDisplay:10.37,2013-01-01 06:01:00,
2013-01-01 00:06:00,1.0,-11.8,30.19,WNW,292,0.0,0.9,54,0.00,CLR,,0.00,WeatherDisplay:10.37,2013-01-01 06:06:00,
2013-01-01 00:11:00,0.3,-12.4,30.19,WNW,292,0.0,0.0,54,0.00,CLR,,0.00,WeatherDisplay:10.37,2013-01-01 06:11:00,
2013-01-01 00:16:00,0.0,-12.8,30.19,WNW,292,0.0,0.0,54,0.00,CLR,,0.00,WeatherDisplay:10.37,2013-01-01 06:16:00,
2013-01-01 00:21:00,0.0,-12.8,30.19,WNW,292,0.0,1.1,54,0.00,CLR,,0.00,WeatherDisplay:10.37,2013-01-01 06:21:00,
2013-01-01 00:26:00,-0.6,-13.3,30.19,NW,315,0.0,0.0,54,0.00,CLR,,0.00,WeatherDisplay:10.37,2013-01-01 06:26:00,
2013-01-01 00:31:00,-0.9,-13.6,30.19,NW,315,0.0,0.0,54,0.00,CLR,,0.00,WeatherDisplay:10.37,2013-01-01 06:31:00,
2013-01-01 00:36:00,-1.3,-14.0,30.19,NW,315,0.0,0.0,54,0.00,CLR,,0.00,WeatherDisplay:10.37,2013-01-01 06:36:00,
2013-01-01 00:41:00,-1.7,-14.3,30.19,NW,315,1.4,2.3,54,0.00,CLR,,0.00,WeatherDisplay:10.37,2013-01-01 06:41:00,
2013-01-01 00:46:00,-1.8,-14.5,30.19,WNW,292,2.2,2.3,54,0.00,CLR,,0.00,WeatherDisplay:10.37,2013-01-01 06:46:00,
2013-01-01 00:51:00,-2.2,-14.8,30.19,West,270,1.1,2.3,54,0.00,CLR,,0.00,WeatherDisplay:10.37,2013-01-01 06:51:00,
2013-01-01 00:56:00,-2.6,-15.1,30.19,WNW,292,0.9,2.3,54,0.00,CLR,,0.00,WeatherDisplay:10.37,2013-01-01 06:56:00,
2013-01-01 01:01:00,-2.9,-15.5,30.19,WNW,292,0.0,1.1,54,0.00,CLR,,0.00,WeatherDisplay:10.37,2013-01-01 07:01:00,
2013-01-01 01:06:00,-3.3,-15.8,30.19,WNW,292,0.0,0.0,54,0.00,CLR,,0.00,WeatherDisplay:10.37,2013-01-01 07:06:00,
2013-01-01 01:11:00,-3.8,-16.3,30.19,NW,315,0.0,0.0,54,0.00,CLR,,0.00,WeatherDisplay:10.37,2013-01-01 07:11:00,
2013-01-01 01:16:00,-4.0,-16.5,30.19,NNW,338,0.0,0.0,54,0.00,CLR,,0.00,WeatherDisplay:10.37,2013-01-01 07:16:00,
2013-01-01 01:21:00,-4.4,-16.8,30.19,NW,315,0.9,1.1,54,0.00,CLR,,0.00,WeatherDisplay:10.37,2013-01-01 07:21:00,
2013-01-01 01:26:00,-4.5,-17.0,30.22,WNW,292,2.2,2.3,54,0.00,CLR,,0.00,WeatherDisplay:10.37,2013-01-01 07:26:00,
2013-01-01 01:31:00,-4.7,-17.2,30.22,West,270,1.6,2.4,54,0.00,CLR,,0.00,WeatherDisplay:10.37,2013-01-01 07:31:00,
2013-01-01 01:36:00,-4.9,-17.3,30.22,WNW,292,1.1,1.1,54,0.00,CLR,,0.00,WeatherDisplay:10.37,2013-01-01 07:36:00,
2013-01-01 01:41:00,-5.1,-17.5,30.16,WNW,292,1.4,1.6,54,0.00,CLR,,0.00,WeatherDisplay:10.37,2013-01-01 07:41:00,
2013-01-01 01:46:00,-5.4,-17.8,30.16,NW,315,0.0,0.0,54,0.00,CLR,,0.00,WeatherDisplay:10.37,2013-01-01 07:46:00,
2013-01-01 01:51:00,-6.0,-18.3,30.16,NW,315,0.0,0.0,54,0.00,CLR,,0.00,WeatherDisplay:10.37,2013-01-01 07:51:00,
2013-01-01 01:56:00,-6.3,-18.7,30.19,WNW,292,0.0,0.0,54,0.00,CLR,,0.00,WeatherDisplay:10.37,2013-01-01 07:56:00,
2013-01-01 02:01:00,-6.3,-18.7,30.19,WNW,292,1.4,2.0,54,0.00,CLR,,0.00,WeatherDisplay:10.37,2013-01-01 08:01:00,
2013-01-01 02:06:00,-6.7,-19.0,30.19,WNW,292,0.0,0.0,54,0.00,CLR,,0.00,WeatherDisplay:10.37,2013-01-01 08:06:00,
2013-01-01 02:11:00,-6.5,-18.9,30.19,West,270,0.0,0.0,54,0.00,CLR,,0.00,WeatherDisplay:10.37,2013-01-01 08:11:00,
2013-01-01 02:16:00,-6.5,-18.9,30.19,West,270,0.0,0.0,54,0.00,CLR,,0.00,WeatherDisplay:10.37,2013-01-01 08:16:00,
2013-01-01 02:21:00,-6.7,-19.0,30.19,WNW,292,0.0,0.0,54,0.00,CLR,,0.00,WeatherDisplay:10.37,2013-01-01 08:21:00,
2013-01-01 02:26:00,-7.1,-19.4,30.19,WNW,292,0.0,0.0,54,0.00,CLR,,0.00,WeatherDisplay:10.37,2013-01-01 08:26:00,
2013-01-01 02:31:00,-7.2,-19.5,30.19,WNW,292,0.0,0.0,54,0.00,CLR,,0.00,WeatherDisplay:10.37,2013-01-01 08:31:00,
2013-01-01 02:36:00,-7.4,-19.7,30.19,WNW,292,1.1,1.1,54,0.00,CLR,,0.00,WeatherDisplay:10.37,2013-01-01 08:36:00,
2013-01-01 02:41:00,-7.4,-19.7,30.19,WNW,292,2.0,2.4,54,0.00,CLR,,0.00,WeatherDisplay:10.37,2013-01-01 08:41:00,
2013-01-01 02:46:00,-7.1,-19.4,30.19,WNW,292,0.9,1.1,54,0.00,CLR,,0.00,WeatherDisplay:10.37,2013-01-01 08:46:00,
2013-01-01 02:51:00,-7.2,-19.5,30.19,WNW,292,1.4,2.3,54,0.00,CLR,,0.00,WeatherDisplay:10.37,2013-01-01 08:51:00,
2013-01-01 02:56:00,-7.2,-19.5,30.19,WNW,292,1.6,2.4,54,0.00,CLR,,0.00,WeatherDisplay:10.37,2013-01-01 08:56:00,
2013-01-01 03:01:00,-7.2,-19.5,30.19,WNW,292,2.2,2.4,54,0.00,CLR,,0.00,WeatherDisplay:10.37,2013-01-01 09:01:00,
2013-01-01 03:06:00,-7.6,-19.9,30.19,West,270,1.6,2.3,54,0.00,CLR,,0.00,WeatherDisplay:10.37,2013-01-01 09:06:00,
2013-01-01 03:11:00,-7.8,-20.0,30.16,WNW,292,0.0,0.0,54,0.00,CLR,,0.00,WeatherDisplay:10.37,2013-01-01 09:11:00,
2013-01-01 03:16:00,-8.3,-20.5,30.16,West,270,0.0,0.0,54,0.00,CLR,,0.00,WeatherDisplay:10.37,2013-01-01 09:16:00,
2013-01-01 03:21:00,-8.7,-20.9,30.16,WNW,292,0.9,1.4,54,0.00,CLR,,0.00,WeatherDisplay:10.37,2013-01-01 09:21:00,
2013-01-01 03:26:00,-8.5,-20.7,30.19,WNW,292,2.4,2.4,54,0.00,CLR,,0.00,WeatherDisplay:10.37,2013-01-01 09:26:00,
2013-01-01 03:31:00,-8.0,-20.2,30.19,WNW,292,0.0,0.0,54,0.00,CLR,,0.00,WeatherDisplay:10.37,2013-01-01 09:31:00,
2013-01-01 03:36:00,-8.3,-20.5,30.19,NW,315,1.1,2.0,54,0.00,CLR,,0.00,WeatherDisplay:10.37,2013-01-01 09:36:00,
2013-01-01 03:41:00,-8.5,-20.7,30.19,NW,315,1.4,2.3,54,0.00,CLR,,0.00,WeatherDisplay:10.37,2013-01-01 09:41:00,
2013-01-01 03:46:00,-8.7,-20.9,30.19,WNW,292,0.9,2.3,54,0.00,CLR,,0.00,WeatherDisplay:10.37,2013-01-01 09:46:00,
2013-01-01 03:51:00,-8.7,-20.9,30.19,WNW,292,0.0,0.0,54,0.00,CLR,,0.00,WeatherDisplay:10.37,2013-01-01 09:51:00,
2013-01-01 03:56:00,-9.0,-21.2,30.19,WNW,292,0.0,0.0,54,0.00,CLR,,0.00,WeatherDisplay:10.37,2013-01-01 09:56:00,
2013-01-01 04:01:00,-9.6,-21.7,30.19,WNW,292,0.0,0.0,54,0.00,CLR,,0.00,WeatherDisplay:10.37,2013-01-01 10:01:00,
2013-01-01 04:06:00,-9.8,-21.9,30.19,WNW,292,0.0,0.0,54,0.00,CLR,,0.00,WeatherDisplay:10.37,2013-01-01 10:06:00,
2013-01-01 04:11:00,-10.1,-22.2,30.19,NW,315,0.0,0.0,54,0.00,CLR,,0.00,WeatherDisplay:10.37,2013-01-01 10:11:00,
2013-01-01 04:16:00,-10.3,-22.4,30.19,NW,315,1.6,2.3,54,0.00,CLR,,0.00,WeatherDisplay:10.37,2013-01-01 10:16:00,
2013-01-01 04:21:00,-10.5,-22.6,30.19,NW,315,2.0,2.3,54,0.00,CLR,,0.00,WeatherDisplay:10.37,2013-01-01 10:21:00,
2013-01-01 04:26:00,-10.3,-22.4,30.19,WNW,292,1.6,2.3,54,0.00,CLR,,0.00,WeatherDisplay:10.37,2013-01-01 10:26:00,
2013-01-01 04:31:00,-10.5,-22.6,30.19,NW,315,0.9,1.1,54,0.00,CLR,,0.00,WeatherDisplay:10.37,2013-01-01 10:31:00,
2013-01-01 04:36:00,-10.7,-22.7,30.19,WNW,292,1.1,2.3,54,0.00,CLR,,0.00,WeatherDisplay:10.37,2013-01-01 10:36:00,
2013-01-01 04:41:00,-10.8,-22.9,30.22,NW,315,1.6,2.4,54,0.00,CLR,,0.00,WeatherDisplay:10.37,2013-01-01 10:41:00,
2013-01-01 04:46:00,-10.7,-22.7,30.22,WSW,248,2.2,2.3,54,0.00,CLR,,0.00,WeatherDisplay:10.37,2013-01-01 10:46:00,
2013-01-01 04:51:00,-9.9,-22.1,30.22,WSW,248,0.0,1.1,54,0.00,CLR,,0.00,WeatherDisplay:10.37,2013-01-01 10:51:00,
2013-01-01 04:56:00,-9.6,-21.7,30.22,WSW,248,0.0,0.0,54,0.00,CLR,,0.00,WeatherDisplay:10.37,2013-01-01 10:56:00,
2013-01-01 05:01:00,-9.0,-21.2,30.22,West,270,0.0,0.0,54,0.00,CLR,,0.00,WeatherDisplay:10.37,2013-01-01 11:01:00,
2013-01-01 05:06:00,-9.0,-21.2,30.22,West,270,0.0,0.0,54,0.00,CLR,,0.00,WeatherDisplay:10.37,2013-01-01 11:06:00,
2013-01-01 05:11:00,-9.4,-21.6,30.22,NW,315,0.0,0.0,54,0.00,CLR,,0.00,WeatherDisplay:10.37,2013-01-01 11:11:00,
2013-01-01 05:16:00,-10.3,-22.4,30.22,NW,315,0.0,0.0,54,0.00,CLR,,0.00,WeatherDisplay:10.37,2013-01-01 11:16:00,
2013-01-01 05:21:00,-10.5,-22.6,30.22,NW,315,0.0,0.0,54,0.00,CLR,,0.00,WeatherDisplay:10.37,2013-01-01 11:21:00,
2013-01-01 05:26:00,-10.7,-22.7,30.22,NW,315,0.0,0.0,54,0.00,CLR,,0.00,WeatherDisplay:10.37,2013-01-01 11:26:00,
2013-01-01 05:31:00,-10.7,-22.7,30.22,NW,315,0.0,0.0,54,0.00,CLR,,0.00,WeatherDisplay:10.37,2013-01-01 11:31:00,
2013-01-01 05:37:00,-10.8,-22.9,30.22,NW,315,0.0,0.0,54,0.00,CLR,,0.00,WeatherDisplay:10.37,2013-01-01 11:37:00,
2013-01-01 05:42:00,-10.8,-22.9,30.25,NW,315,0.0,0.0,54,0.00,CLR,,0.00,WeatherDisplay:10.37,2013-01-01 11:42:00,
2013-01-01 05:47:00,-10.8,-22.9,30.25,NW,309,1.0,2.0,54,0.00,CLR,,0.00,WeatherDisplay:10.37,2013-01-01 11:47:00,
2013-01-01 05:52:00,-10.7,-22.7,30.25,WNW,292,1.1,2.3,54,0.00,CLR,,0.00,WeatherDisplay:10.37,2013-01-01 11:52:00,
2013-01-01 05:57:00,-10.4,-22.5,30.25,WNW,294,1.0,2.0,54,0.00,CLR,,0.00,WeatherDisplay:10.37,2013-01-01 11:57:00,
2013-01-01 06:02:00,-10.5,-22.6,30.25,WNW,296,1.0,2.0,54,0.00,CLR,,0.00,WeatherDisplay:10.37,2013-01-01 12:02:00,
2013-01-01 06:07:00,-10.5,-22.6,30.25,WNW,292,2.0,2.3,54,0.00,CLR,,0.00,WeatherDisplay:10.37,2013-01-01 12:07:00,
2013-01-01 06:12:00,-10.5,-22.6,30.25,WNW,292,1.4,2.3,54,0.00,CLR,,0.00,WeatherDisplay:10.37,2013-01-01 12:12:00,
2013-01-01 06:17:00,-10.8,-22.9,30.25,NW,315,2.0,2.3,54,0.00,CLR,,0.00,WeatherDisplay:10.37,2013-01-01 12:17:00,
2013-01-01 06:22:00,-11.0,-23.1,30.25,WNW,292,1.6,2.3,54,0.00,CLR,,0.00,WeatherDisplay:10.37,2013-01-01 12:22:00,
2013-01-01 06:27:00,-11.2,-23.3,30.25,WNW,292,1.1,1.1,54,0.00,CLR,,0.00,WeatherDisplay:10.37,2013-01-01 12:27:00,
2013-01-01 06:32:00,-11.2,-23.3,30.25,WNW,292,1.1,1.1,54,0.00,CLR,,0.00,WeatherDisplay:10.37,2013-01-01 12:32:00,
2013-01-01 06:37:00,-11.2,-23.3,30.25,WNW,292,0.9,1.4,54,0.00,CLR,,0.00,WeatherDisplay:10.37,2013-01-01 12:37:00,
2013-01-01 06:42:00,-11.2,-23.3,30.25,WNW,292,1.4,2.3,54,0.00,CLR,,0.00,WeatherDisplay:10.37,2013-01-01 12:42:00,
2013-01-01 06:47:00,-10.7,-22.7,30.25,West,270,0.0,0.0,54,0.00,CLR,,0.00,WeatherDisplay:10.37,2013-01-01 12:47:00,
2013-01-01 06:52:00,-10.8,-22.9,30.25,WNW,292,1.4,2.6,54,0.00,CLR,,0.00,WeatherDisplay:10.37,2013-01-01 12:52:00,
2013-01-01 06:57:00,-10.8,-22.9,30.25,West,270,1.4,2.3,54,0.00,CLR,,0.00,WeatherDisplay:10.37,2013-01-01 12:57:00,
2013-01-01 07:02:00,-11.2,-23.3,30.25,WNW,292,1.6,2.3,54,0.00,CLR,,0.00,WeatherDisplay:10.37,2013-01-01 13:02:00,
2013-01-01 07:07:00,-11.2,-23.3,30.25,WNW,292,2.2,2.4,54,0.00,CLR,,0.00,WeatherDisplay:10.37,2013-01-01 13:07:00,
2013-01-01 07:12:00,-11.0,-23.1,30.25,WNW,292,1.6,2.3,54,0.00,CLR,,0.00,WeatherDisplay:10.37,2013-01-01 13:12:00,
2013-01-01 07:17:00,-11.2,-23.3,30.25,NW,315,2.0,2.3,54,0.00,CLR,,0.00,WeatherDisplay:10.37,2013-01-01 13:17:00,
2013-01-01 07:22:00,-11.2,-23.3,30.25,NW,315,0.0,1.1,54,0.00,CLR,,0.00,WeatherDisplay:10.37,2013-01-01 13:22:00,
2013-01-01 07:27:00,-11.2,-23.3,30.25,NW,315,0.0,0.0,54,0.00,CLR,,0.00,WeatherDisplay:10.37,2013-01-01 13:27:00,
2013-01-01 07:32:00,-11.2,-23.3,30.25,NW,315,0.0,0.0,54,0.00,CLR,,0.00,WeatherDisplay:10.37,2013-01-01 13:32:00,
2013-01-01 07:37:00,-11.7,-23.8,30.25,NW,315,0.0,0.0,54,0.00,CLR,,0.00,WeatherDisplay:10.37,2013-01-01 13:37:00,
2013-01-01 07:42:00,-11.6,-23.6,30.25,WNW,292,1.1,1.1,54,0.00,CLR,,0.00,WeatherDisplay:10.37,2013-01-01 13:42:00,
2013-01-01 07:47:00,-11.6,-23.6,30.25,WNW,292,0.0,0.0,54,0.00,CLR,,0.00,WeatherDisplay:10.37,2013-01-01 13:47:00,
2013-01-01 07:52:00,-11.2,-23.3,30.25,WNW,292,0.0,0.0,54,0.00,CLR,,0.00,WeatherDisplay:10.37,2013-01-01 13:52:00,
2013-01-01 07:57:00,-11.2,-23.3,30.25,NW,315,0.0,0.0,54,0.00,CLR,,0.00,WeatherDisplay:10.37,2013-01-01 13:57:00,
2013-01-01 08:02:00,-10.8,-22.9,30.25,WNW,292,1.4,1.4,54,0.00,CLR,,0.00,WeatherDisplay:10.37,2013-01-01 14:02:00,
2013-01-01 08:07:00,-9.8,-21.9,30.25,WNW,292,1.1,1.4,54,0.00,CLR,,0.00,WeatherDisplay:10.37,2013-01-01 14:07:00,
2013-01-01 08:12:00,-7.2,-19.5,30.25,NW,315,1.6,2.0,54,0.00,CLR,,0.00,WeatherDisplay:10.37,2013-01-01 14:12:00,
2013-01-01 08:17:00,-5.8,-18.2,30.25,NW,315,0.0,0.0,54,0.00,CLR,,0.00,WeatherDisplay:10.37,2013-01-01 14:17:00,
2013-01-01 08:22:00,-4.4,-16.8,30.25,NW,315,0.0,0.0,54,0.00,CLR,,0.00,WeatherDisplay:10.37,2013-01-01 14:22:00,
2013-01-01 08:27:00,-1.8,-14.5,30.22,NW,315,0.0,0.0,54,0.00,CLR,,0.00,WeatherDisplay:10.37,2013-01-01 14:27:00,
2013-01-01 08:32:00,1.4,-11.4,30.22,NW,315,0.0,0.0,54,0.00,CLR,,0.00,WeatherDisplay:10.37,2013-01-01 14:32:00,
2013-01-01 08:37:00,2.8,-10.1,30.22,NW,315,0.0,0.0,54,0.00,CLR,,0.00,WeatherDisplay:10.37,2013-01-01 14:37:00,
2013-01-01 08:42:00,3.2,-9.7,30.22,West,270,1.6,2.3,54,0.00,CLR,,0.00,WeatherDisplay:10.37,2013-01-01 14:42:00,
2013-01-01 08:47:00,4.3,-8.7,30.22,NW,315,0.0,1.1,54,0.00,CLR,,0.00,WeatherDisplay:10.37,2013-01-01 14:47:00,
2013-01-01 08:52:00,5.7,-7.4,30.22,WNW,292,0.0,0.0,54,0.00,CLR,,0.00,WeatherDisplay:10.37,2013-01-01 14:52:00,
2013-01-01 08:57:00,7.5,-5.7,30.22,WNW,292,0.0,0.0,54,0.00,CLR,,0.00,WeatherDisplay:10.37,2013-01-01 14:57:00,
2013-01-01 09:02:00,9.0,-4.3,30.22,NW,315,0.0,0.0,54,0.00,CLR,,0.00,WeatherDisplay:10.37,2013-01-01 15:02:00,
2013-01-01 09:07:00,9.7,-3.7,30.22,WNW,292,0.0,0.0,54,0.00,CLR,,0.00,WeatherDisplay:10.37,2013-01-01 15:07:00,
2013-01-01 09:12:00,10.9,-2.5,30.25,WSW,248,0.0,0.0,54,0.00,CLR,,0.00,WeatherDisplay:10.37,2013-01-01 15:12:00,
2013-01-01 09:17:00,12.6,-1.0,30.25,NNW,338,0.0,0.0,54,0.00,CLR,,0.00,WeatherDisplay:10.37,2013-01-01 15:17:00,
2013-01-01 09:22:00,13.1,-0.5,30.25,NNW,338,1.1,1.1,54,0.00,CLR,,0.00,WeatherDisplay:10.37,2013-01-01 15:22:00,
2013-01-01 09:25:00,13.6,-6.8,30.10,WSW,258,2.0,3.0,39,0.00,CLR,,0.00,WeatherDisplay:10.37,2013-01-01 15:25:00,
2013-01-01 09:27:00,14.4,1.9,30.25,NW,315,1.6,2.3,57,0.00,CLR,,0.00,WeatherDisplay:10.37,2013-01-01 15:27:00,
2013-01-01 09:30:00,13.6,-6.8,30.10,SW,227,2.0,2.0,39,0.00,CLR,,0.00,WeatherDisplay:10.37,2013-01-01 15:30:00,
2013-01-01 09:32:00,15.3,2.3,30.25,NW,315,1.6,2.3,56,0.00,CLR,,0.00,WeatherDisplay:10.37,2013-01-01 15:32:00,
2013-01-01 09:35:00,13.6,-6.8,30.10,SW,228,1.0,4.0,39,0.00,CLR,,0.00,WeatherDisplay:10.37,2013-01-01 15:35:00,
2013-01-01 09:37:00,16.7,2.9,30.25,North,0,1.1,1.1,54,0.00,CLR,,0.00,WeatherDisplay:10.37,2013-01-01 15:37:00,
2013-01-01 09:42:00,16.2,1.6,30.25,NNW,338,2.0,2.3,52,0.00,CLR,,0.00,WeatherDisplay:10.37,2013-01-01 15:42:00,
2013-01-01 09:47:00,16.5,1.1,30.25,NW,315,2.0,2.3,50,0.00,CLR,,0.00,WeatherDisplay:10.37,2013-01-01 15:47:00,
2013-01-01 09:52:00,18.1,2.2,30.25,NNE,22,0.0,0.0,49,0.00,CLR,,0.00,WeatherDisplay:10.37,2013-01-01 15:52:00,
2013-01-01 09:57:00,18.7,2.2,30.25,ENE,68,1.1,2.3,48,0.00,CLR,,0.00,WeatherDisplay:10.37,2013-01-01 15:57:00,
2013-01-01 10:02:00,18.3,1.4,30.25,ENE,68,0.0,1.1,47,0.00,CLR,,0.00,WeatherDisplay:10.37,2013-01-01 16:02:00,
2013-01-01 10:07:00,20.1,2.1,30.25,ENE,68,0.0,1.6,45,0.00,CLR,,0.00,WeatherDisplay:10.37,2013-01-01 16:07:00,
2013-01-01 10:12:00,19.6,2.1,30.25,NE,45,1.4,2.3,46,0.00,CLR,,0.00,WeatherDisplay:10.37,2013-01-01 16:12:00,
2013-01-01 10:17:00,20.5,2.9,30.25,NE,45,1.6,2.3,46,0.00,CLR,,0.00,WeatherDisplay:10.37,2013-01-01 16:17:00,
2013-01-01 10:22:00,21.2,2.6,30.25,NE,45,0.0,0.0,44,0.00,CLR,,0.00,WeatherDisplay:10.37,2013-01-01 16:22:00,
2013-01-01 10:27:00,20.8,2.8,30.25,West,270,2.4,4.9,45,0.00,CLR,,0.00,WeatherDisplay:10.37,2013-01-01 16:27:00,
2013-01-01 10:32:00,20.5,2.0,30.25,NW,315,2.9,5.4,44,0.00,CLR,,0.00,WeatherDisplay:10.37,2013-01-01 16:32:00,
2013-01-01 10:37:00,20.1,1.2,30.25,WNW,292,2.4,4.6,43,0.00,CLR,,0.00,WeatherDisplay:10.37,2013-01-01 16:37:00,
2013-01-01 10:42:00,20.3,1.3,30.22,North,0,2.6,6.9,43,0.00,CLR,,0.00,WeatherDisplay:10.37,2013-01-01 16:42:00,
2013-01-01 10:47:00,20.3,1.3,30.22,NW,315,3.3,4.6,43,0.00,CLR,,0.00,WeatherDisplay:10.37,2013-01-01 16:47:00,
2013-01-01 10:52:00,19.9,1.0,30.22,WNW,292,2.9,4.6,43,0.00,CLR,,0.00,WeatherDisplay:10.37,2013-01-01 16:52:00,
2013-01-01 10:57:00,20.5,1.5,30.22,North,0,2.4,2.6,43,0.00,CLR,,0.00,WeatherDisplay:10.37,2013-01-01 16:57:00,
2013-01-01 11:02:00,20.1,1.2,30.22,WNW,292,2.6,4.6,43,0.00,CLR,,0.00,WeatherDisplay:10.37,2013-01-01 17:02:00,
2013-01-01 11:07:00,19.8,0.3,30.22,NW,315,4.0,5.8,42,0.00,CLR,,0.00,WeatherDisplay:10.37,2013-01-01 17:07:00,
2013-01-01 11:12:00,18.3,-1.0,30.19,WNW,292,4.0,5.8,42,0.00,CLR,,0.00,WeatherDisplay:10.37,2013-01-01 17:12:00,
2013-01-01 11:17:00,16.5,-2.6,30.19,NNW,338,2.9,5.8,42,0.00,CLR,,0.00,WeatherDisplay:10.37,2013-01-01 17:17:00,
2013-01-01 11:22:00,16.7,-2.5,30.19,North,0,4.0,5.8,42,0.00,CLR,,0.00,WeatherDisplay:10.37,2013-01-01 17:22:00,
2013-01-01 11:27:00,17.6,-1.1,30.19,WNW,292,2.4,3.5,43,0.00,CLR,,0.00,WeatherDisplay:10.37,2013-01-01 17:27:00,
2013-01-01 11:32:00,17.1,-2.1,30.19,NNW,338,3.8,5.8,42,0.00,CLR,,0.00,WeatherDisplay:10.37,2013-01-01 17:32:00,
2013-01-01 11:37:00,16.2,-2.9,30.19,NW,315,3.3,4.6,42,0.00,CLR,,0.00,WeatherDisplay:10.37,2013-01-01 17:37:00,
2013-01-01 11:42:00,16.5,-2.6,30.19,NW,315,3.6,4.7,42,0.00,CLR,,0.00,WeatherDisplay:10.37,2013-01-01 17:42:00,
2013-01-01 11:47:00,16.9,-2.3,30.19,West,270,4.0,5.6,42,0.00,CLR,,0.00,WeatherDisplay:10.37,2013-01-01 17:47:00,
2013-01-01 11:52:00,17.4,-1.3,30.19,WNW,292,1.1,3.5,43,0.00,CLR,,0.00,WeatherDisplay:10.37,2013-01-01 17:52:00,
2013-01-01 11:57:00,17.8,-1.5,30.16,NW,315,3.1,3.6,42,0.00,CLR,,0.00,WeatherDisplay:10.37,2013-01-01 17:57:00,
2013-01-01 12:02:00,17.1,-2.1,30.16,WSW,248,3.1,4.6,42,0.00,CLR,,0.00,WeatherDisplay:10.37,2013-01-01 18:02:00,
2013-01-01 12:07:00,16.9,-2.8,30.16,WNW,292,4.0,5.8,41,0.00,CLR,,0.00,WeatherDisplay:10.37,2013-01-01 18:07:00,
2013-01-01 12:12:00,16.5,-2.6,30.19,SSE,158,2.6,4.6,42,0.00,CLR,,0.00,WeatherDisplay:10.37,2013-01-01 18:12:00,
2013-01-01 12:17:00,17.1,-1.6,30.19,West,270,2.4,4.6,43,0.00,CLR,,0.00,WeatherDisplay:10.37,2013-01-01 18:17:00,
2013-01-01 12:22:00,18.1,-1.1,30.19,WNW,292,2.4,5.8,42,0.00,CLR,,0.00,WeatherDisplay:10.37,2013-01-01 18:22:00,
2013-01-01 12:27:00,17.4,-2.3,30.19,SSW,202,3.6,8.1,41,0.00,CLR,,0.00,WeatherDisplay:10.37,2013-01-01 18:27:00,
2013-01-01 12:32:00,17.4,-1.8,30.19,WSW,248,2.6,4.6,42,0.00,CLR,,0.00,WeatherDisplay:10.37,2013-01-01 18:32:00,
2013-01-01 12:37:00,17.1,-2.6,30.19,NW,315,6.0,6.9,41,0.00,CLR,,0.00,WeatherDisplay:10.37,2013-01-01 18:37:00,
2013-01-01 12:42:00,17.8,-2.0,30.19,West,270,2.9,5.4,41,0.00,CLR,,0.00,WeatherDisplay:10.37,2013-01-01 18:42:00,
2013-01-01 12:47:00,16.7,-3.0,30.19,WSW,248,6.2,6.9,41,0.00,CLR,,0.00,WeatherDisplay:10.37,2013-01-01 18:47:00,
2013-01-01 12:52:00,17.6,-2.1,30.19,WSW,248,3.6,5.9,41,0.00,CLR,,0.00,WeatherDisplay:10.37,2013-01-01 18:52:00,
2013-01-01 12:57:00,18.1,-1.7,30.16,WNW,292,2.2,5.6,41,0.00,CLR,,0.00,WeatherDisplay:10.37,2013-01-01 18:57:00,
2013-01-01 13:02:00,18.3,-1.5,30.16,SW,225,2.4,4.6,41,0.00,CLR,,0.00,WeatherDisplay:10.37,2013-01-01 19:02:00,
2013-01-01 13:07:00,18.5,-1.3,30.16,WSW,248,2.4,4.5,41,0.00,CLR,,0.00,WeatherDisplay:10.37,2013-01-01 19:07:00,
2013-01-01 13:12:00,18.1,-1.7,30.16,WSW,248,3.6,5.8,41,0.00,CLR,,0.00,WeatherDisplay:10.37,2013-01-01 19:12:00,
2013-01-01 13:17:00,17.8,-2.5,30.16,WSW,248,4.0,6.9,40,0.00,CLR,,0.00,WeatherDisplay:10.37,2013-01-01 19:17:00,
2013-01-01 13:22:00,17.8,-2.5,30.16,WNW,292,4.5,5.8,40,0.00,CLR,,0.00,WeatherDisplay:10.37,2013-01-01 19:22:00,
2013-01-01 13:32:00,17.8,-2.5,30.16,West,271,5.0,6.0,40,0.00,CLR,,0.00,WeatherDisplay:10.37,2013-01-01 19:32:00,
2013-01-01 13:42:00,17.8,-2.5,30.16,West,270,5.0,6.0,40,0.00,CLR,,0.00,WeatherDisplay:10.37,2013-01-01 19:42:00,
2013-01-01 13:52:00,17.8,-2.5,30.16,West,270,5.0,6.0,40,0.00,CLR,,0.00,WeatherDisplay:10.37,2013-01-01 19:52:00,
2013-01-01 14:02:00,17.8,-2.5,30.16,West,270,5.0,6.0,40,0.00,CLR,,0.00,WeatherDisplay:10.37,2013-01-01 20:02:00,
2013-01-01 14:07:00,17.8,-2.5,30.16,West,270,5.0,6.0,40,0.00,CLR,,0.00,WeatherDisplay:10.37,2013-01-01 20:07:00,
2013-01-01 14:12:00,17.8,-2.5,30.16,West,270,5.0,6.0,40,0.00,CLR,,0.00,WeatherDisplay:10.37,2013-01-01 20:12:00,
2013-01-01 14:22:00,17.8,-2.5,30.16,West,270,5.0,6.0,40,0.00,CLR,,0.00,WeatherDisplay:10.37,2013-01-01 20:22:00,
2013-01-01 14:32:00,17.8,-2.5,30.16,West,270,5.0,6.0,40,0.00,CLR,,0.00,WeatherDisplay:10.37,2013-01-01 20:32:00,
2013-01-01 14:42:00,17.8,-2.5,30.16,West,270,5.0,6.0,40,0.00,CLR,,0.00,WeatherDisplay:10.37,2013-01-01 20:42:00,
2013-01-01 14:52:00,17.8,-2.5,30.16,West,270,5.0,6.0,40,0.00,CLR,,0.00,WeatherDisplay:10.37,2013-01-01 20:52:00,
2013-01-01 15:02:00,17.8,-2.5,30.16,West,270,5.0,6.0,40,0.00,CLR,,0.00,WeatherDisplay:10.37,2013-01-01 21:02:00,
2013-01-01 15:07:00,17.8,-2.5,30.16,West,270,5.0,6.0,40,0.00,CLR,,0.00,WeatherDisplay:10.37,2013-01-01 21:07:00,
2013-01-01 15:12:00,17.8,-2.5,30.16,West,270,5.0,6.0,40,0.00,CLR,,0.00,WeatherDisplay:10.37,2013-01-01 21:12:00,
2013-01-01 15:22:00,17.8,-2.5,30.16,West,270,5.0,6.0,40,0.00,CLR,,0.00,WeatherDisplay:10.37,2013-01-01 21:22:00,
2013-01-01 15:32:00,17.8,-2.5,30.16,West,270,5.0,6.0,40,0.00,CLR,,0.00,WeatherDisplay:10.37,2013-01-01 21:32:00,
2013-01-01 15:42:00,17.8,-2.5,30.16,West,270,5.0,6.0,40,0.00,CLR,,0.00,WeatherDisplay:10.37,2013-01-01 21:42:00,
2013-01-01 15:52:00,17.8,-2.5,30.16,West,270,5.0,6.0,40,0.00,CLR,,0.00,WeatherDisplay:10.37,2013-01-01 21:52:00,
2013-01-01 16:02:00,17.8,-2.5,30.16,West,270,5.0,6.0,40,0.00,CLR,,0.00,WeatherDisplay:10.37,2013-01-01 22:02:00,
2013-01-01 16:07:00,17.8,-2.5,30.16,West,270,5.0,6.0,40,0.00,CLR,,0.00,WeatherDisplay:10.37,2013-01-01 22:07:00,
2013-01-01 16:12:00,17.8,-2.5,30.16,West,270,5.0,6.0,40,0.00,CLR,,0.00,WeatherDisplay:10.37,2013-01-01 22:12:00,
2013-01-01 16:22:00,17.8,-2.5,30.16,West,270,5.0,6.0,40,0.00,CLR,,0.00,WeatherDisplay:10.37,2013-01-01 22:22:00,
2013-01-01 16:32:00,17.8,-2.5,30.16,West,270,5.0,6.0,40,0.00,CLR,,0.00,WeatherDisplay:10.37,2013-01-01 22:32:00,
2013-01-01 16:42:00,17.8,-2.5,30.16,West,270,5.0,6.0,40,0.00,CLR,,0.00,WeatherDisplay:10.37,2013-01-01 22:42:00,
2013-01-01 16:52:00,17.8,-2.5,30.16,West,270,5.0,6.0,40,0.00,CLR,,0.00,WeatherDisplay:10.37,2013-01-01 22:52:00,
2013-01-01 17:02:00,17.8,-2.5,30.16,West,270,5.0,6.0,40,0.00,CLR,,0.00,WeatherDisplay:10.37,2013-01-01 23:02:00,
2013-01-01 17:07:00,17.8,-2.5,30.16,West,270,5.0,6.0,40,0.00,CLR,,0.00,WeatherDisplay:10.37,2013-01-01 23:07:00,
2013-01-01 17:12:00,17.8,-2.5,30.16,West,270,5.0,6.0,40,0.00,CLR,,0.00,WeatherDisplay:10.37,2013-01-01 23:12:00,
2013-01-01 17:22:00,17.8,-2.5,30.16,West,270,5.0,6.0,40,0.00,CLR,,0.00,WeatherDisplay:10.37,2013-01-01 23:22:00,
2013-01-01 17:32:00,17.8,-2.5,30.16,West,270,5.0,6.0,40,0.00,CLR,,0.00,WeatherDisplay:10.37,2013-01-01 23:32:00,
2013-01-01 17:42:00,17.8,-2.5,30.16,West,270,5.0,6.0,40,0.00,CLR,,0.00,WeatherDisplay:10.37,2013-01-01 23:42:00,
2013-01-01 17:52:00,17.8,-2.5,30.16,West,270,5.0,6.0,40,0.00,CLR,,0.00,WeatherDisplay:10.37,2013-01-01 23:52:00,
2013-01-01 18:02:00,17.8,-2.5,30.16,West,270,5.0,6.0,40,0.00,CLR,,0.00,WeatherDisplay:10.37,2013-01-02 00:02:00,
2013-01-01 18:07:00,17.8,-2.5,30.16,West,270,5.0,6.0,40,0.00,CLR,,0.00,WeatherDisplay:10.37,2013-01-02 00:07:00,
2013-01-01 18:12:00,17.8,-2.5,30.16,West,270,5.0,6.0,40,0.00,CLR,,0.00,WeatherDisplay:10.37,2013-01-02 00:12:00,
2013-01-01 18:22:00,17.8,-2.5,30.16,West,270,5.0,6.0,40,0.00,CLR,,0.00,WeatherDisplay:10.37,2013-01-02 00:22:00,
2013-01-01 18:32:00,17.8,-2.5,30.16,West,270,5.0,6.0,40,0.00,CLR,,0.00,WeatherDisplay:10.37,2013-01-02 00:32:00,
2013-01-01 18:42:00,17.8,-2.5,30.16,West,270,5.0,6.0,40,0.00,CLR,,0.00,WeatherDisplay:10.37,2013-01-02 00:42:00,
2013-01-01 18:52:00,17.8,-2.5,30.16,West,270,5.0,6.0,40,0.00,CLR,,0.00,WeatherDisplay:10.37,2013-01-02 00:52:00,
2013-01-01 19:02:00,17.8,-2.5,30.16,West,270,5.0,6.0,40,0.00,CLR,,0.00,WeatherDisplay:10.37,2013-01-02 01:02:00,
2013-01-01 19:07:00,17.8,-2.5,30.16,West,270,5.0,6.0,40,0.00,CLR,,0.00,WeatherDisplay:10.37,2013-01-02 01:07:00,
2013-01-01 19:12:00,17.8,-2.5,30.16,West,270,5.0,6.0,40,0.00,CLR,,0.00,WeatherDisplay:10.37,2013-01-02 01:12:00,
2013-01-01 19:22:00,17.8,-2.5,30.16,West,270,5.0,6.0,40,0.00,CLR,,0.00,WeatherDisplay:10.37,2013-01-02 01:22:00,
2013-01-01 19:32:00,17.8,-2.5,30.16,West,270,5.0,6.0,40,0.00,CLR,,0.00,WeatherDisplay:10.37,2013-01-02 01:32:00,
2013-01-01 19:42:00,17.8,-2.5,30.16,West,270,5.0,6.0,40,0.00,CLR,,0.00,WeatherDisplay:10.37,2013-01-02 01:42:00,
2013-01-01 19:52:00,17.8,-2.5,30.16,West,270,5.0,6.0,40,0.00,CLR,,0.00,WeatherDisplay:10.37,2013-01-02 01:52:00,
2013-01-01 20:02:00,17.8,-2.5,30.16,West,270,5.0,6.0,40,0.00,CLR,,0.00,WeatherDisplay:10.37,2013-01-02 02:02:00,
2013-01-01 20:07:00,17.8,-2.5,30.16,West,270,5.0,6.0,40,0.00,CLR,,0.00,WeatherDisplay:10.37,2013-01-02 02:07:00,
2013-01-01 20:12:00,17.8,-2.5,30.16,West,270,5.0,6.0,40,0.00,CLR,,0.00,WeatherDisplay:10.37,2013-01-02 02:12:00,
2013-01-01 20:22:00,17.8,-2.5,30.16,West,270,5.0,6.0,40,0.00,CLR,,0.00,WeatherDisplay:10.37,2013-01-02 02:22:00,
2013-01-01 20:32:00,17.8,-2.5,30.16,West,270,5.0,6.0,40,0.00,CLR,,0.00,WeatherDisplay:10.37,2013-01-02 02:32:00,
2013-01-01 20:42:00,17.8,-2.5,30.16,West,270,5.0,6.0,40,0.00,CLR,,0.00,WeatherDisplay:10.37,2013-01-02 02:42:00,
2013-01-01 20:52:00,17.8,-2.5,30.16,West,270,5.0,6.0,40,0.00,CLR,,0.00,WeatherDisplay:10.37,2013-01-02 02:52:00,
2013-01-01 21:02:00,17.8,-2.5,30.16,West,270,5.0,6.0,40,0.00,CLR,,0.00,WeatherDisplay:10.37,2013-01-02 03:02:00,
2013-01-01 21:07:00,17.8,-2.5,30.16,West,270,5.0,6.0,40,0.00,CLR,,0.00,WeatherDisplay:10.37,2013-01-02 03:07:00,
2013-01-01 21:12:00,17.8,-2.5,30.16,West,270,5.0,6.0,40,0.00,CLR,,0.00,WeatherDisplay:10.37,2013-01-02 03:12:00,
2013-01-01 21:22:00,17.8,-2.5,30.16,West,270,5.0,6.0,40,0.00,CLR,,0.00,WeatherDisplay:10.37,2013-01-02 03:22:00,
2013-01-01 21:32:00,17.8,-2.5,30.16,West,270,5.0,6.0,40,0.00,CLR,,0.00,WeatherDisplay:10.37,2013-01-02 03:32:00,
2013-01-01 21:42:00,17.8,-2.5,30.16,West,270,5.0,6.0,40,0.00,CLR,,0.00,WeatherDisplay:10.37,2013-01-02 03:42:00,
2013-01-01 21:52:00,17.8,-2.5,30.16,West,270,5.0,6.0,40,0.00,CLR,,0.00,WeatherDisplay:10.37,2013-01-02 03:52:00,
2013-01-01 22:02:00,17.8,-2.5,30.16,West,270,5.0,6.0,40,0.00,CLR,,0.00,WeatherDisplay:10.37,2013-01-02 04:02:00,
2013-01-01 22:07:00,17.8,-2.5,30.16,West,270,5.0,6.0,40,0.00,CLR,,0.00,WeatherDisplay:10.37,2013-01-02 04:07:00,
2013-01-01 22:12:00,17.8,-2.5,30.16,West,270,5.0,6.0,40,0.00,CLR,,0.00,WeatherDisplay:10.37,2013-01-02 04:12:00,
2013-01-01 22:22:00,17.8,-2.5,30.16,West,270,5.0,6.0,40,0.00,CLR,,0.00,WeatherDisplay:10.37,2013-01-02 04:22:00,
2013-01-01 22:41:00,14.2,1.3,30.10,WNW,292,0.0,5.8,56,0.00,CLR,,0.00,WeatherDisplay:10.37,2013-01-02 04:41:00,
2013-01-01 22:46:00,14.2,1.7,30.10,North,0,0.0,1.4,57,0.00,CLR,,0.00,WeatherDisplay:10.37,2013-01-02 04:46:00,
2013-01-01 22:51:00,14.4,1.9,30.10,WSW,248,0.9,1.6,57,0.00,CLR,,0.00,WeatherDisplay:10.37,2013-01-02 04:51:00,
2013-01-01 22:56:00,14.4,1.9,30.10,West,270,0.9,1.1,57,0.00,CLR,,0.00,WeatherDisplay:10.37,2013-01-02 04:56:00,
2013-01-01 23:00:00,14.4,2.3,30.10,SSW,202,0.0,2.3,58,0.00,CLR,,0.00,WeatherDisplay:10.37,2013-01-02 05:00:00,
2013-01-01 23:01:00,14.4,2.3,30.10,SW,225,0.9,2.6,58,0.00,CLR,,0.00,WeatherDisplay:10.37,2013-01-02 05:01:00,
2013-01-01 23:02:00,14.4,2.3,30.10,NW,315,1.6,2.3,58,0.00,CLR,,0.00,WeatherDisplay:10.37,2013-01-02 05:02:00,
2013-01-01 23:03:00,14.4,2.3,30.10,WSW,248,1.4,2.3,58,0.00,CLR,,0.00,WeatherDisplay:10.37,2013-01-02 05:03:00,
2013-01-01 23:08:00,14.4,2.3,30.10,SW,225,0.0,1.1,58,0.00,CLR,,0.00,WeatherDisplay:10.37,2013-01-02 05:08:00,
2013-01-01 23:13:00,14.4,2.3,30.10,SW,225,0.0,0.0,58,0.00,CLR,,0.00,WeatherDisplay:10.37,2013-01-02 05:13:00,
2013-01-01 23:18:00,14.4,2.3,30.10,SSW,202,0.9,1.1,58,0.00,CLR,,0.00,WeatherDisplay:10.37,2013-01-02 05:18:00,
2013-01-01 23:23:00,14.4,2.3,30.10,South,180,0.0,1.1,58,0.00,CLR,,0.00,WeatherDisplay:10.37,2013-01-02 05:23:00,
2013-01-01 23:28:00,14.4,2.3,30.10,West,270,1.6,3.5,58,0.00,CLR,,0.00,WeatherDisplay:10.37,2013-01-02 05:28:00,
2013-01-01 23:33:00,14.4,2.6,30.10,SSW,202,0.0,1.1,59,0.00,CLR,,0.00,WeatherDisplay:10.37,2013-01-02 05:33:00,
2013-01-01 23:38:00,14.4,2.3,30.10,WSW,248,2.2,2.3,58,0.00,CLR,,0.00,WeatherDisplay:10.37,2013-01-02 05:38:00,
2013-01-01 23:43:00,14.2,2.1,30.10,West,270,2.0,2.6,58,0.00,CLR,,0.00,WeatherDisplay:10.37,2013-01-02 05:43:00,
2013-01-01 23:48:00,14.2,2.5,30.10,SW,225,2.0,2.3,59,0.00,CLR,,0.00,WeatherDisplay:10.37,2013-01-02 05:48:00,
2013-01-01 23:53:00,14.2,2.1,30.10,South,180,1.6,2.3,58,0.00,CLR,,0.00,WeatherDisplay:10.37,2013-01-02 05:53:00,
2013-01-01 23:58:00,14.2,2.5,30.10,WSW,248,1.4,3.5,59,0.00,CLR,,0.00,WeatherDisplay:10.37,2013-01-02 05:58:00,